createdAt,value
2022-09-04T00:00:10.371Z,8.23
2022-09-04T00:05:57.105Z,8.31
2022-09-04T00:08:40.877Z,8.15
2022-09-04T00:11:19.090Z,8.09
2022-09-04T00:13:55.099Z,8.03
2022-09-04T00:16:31.384Z,7.94
2022-09-04T00:19:07.765Z,7.90
2022-09-04T00:21:43.834Z,7.88
2022-09-04T00:24:20.226Z,7.84
2022-09-04T00:26:57.073Z,7.80
2022-09-04T00:29:37.613Z,7.74
2022-09-04T00:32:15.768Z,7.70
2022-09-04T00:34:51.857Z,7.65
2022-09-04T00:37:27.688Z,7.66
2022-09-04T00:40:04.387Z,7.57
2022-09-04T00:42:54.308Z,7.53
2022-09-04T00:45:49.597Z,7.49
2022-09-04T00:48:32.595Z,7.49
2022-09-04T00:51:30.554Z,7.49
2022-09-04T00:54:14.223Z,7.50
2022-09-04T00:56:59.808Z,7.48
2022-09-04T00:59:44.080Z,7.47
2022-09-04T01:02:20.558Z,7.42
2022-09-04T01:04:58.647Z,7.37
2022-09-04T01:07:40.183Z,7.35
2022-09-04T01:10:23.961Z,7.33
2022-09-04T01:13:01.462Z,7.29
2022-09-04T01:15:39.280Z,7.25
2022-09-04T01:18:15.283Z,7.23
2022-09-04T01:20:58.755Z,7.20
2022-09-04T01:23:46.351Z,7.17
2022-09-04T01:26:23.054Z,7.11
2022-09-04T01:29:02.853Z,7.07
2022-09-04T01:31:39.606Z,7.05
2022-09-04T01:34:29.613Z,7.01
2022-09-04T01:37:07.573Z,6.98
2022-09-04T01:39:44.247Z,6.94
2022-09-04T01:45:00.904Z,7.05
2022-09-04T01:47:37.627Z,6.92
2022-09-04T01:50:13.732Z,6.92
2022-09-04T01:52:51.731Z,6.91
2022-09-04T01:55:24.794Z,6.90
2022-09-04T01:58:03.009Z,6.95
2022-09-04T02:00:39.871Z,6.92
2022-09-04T02:03:16.521Z,6.90
2022-09-04T02:05:56.551Z,6.91
2022-09-04T02:08:47.738Z,6.91
2022-09-04T02:11:26.576Z,6.92
2022-09-04T02:14:09.503Z,6.89
2022-09-04T02:16:49.379Z,6.86
2022-09-04T02:19:29.785Z,6.83
2022-09-04T02:22:07.553Z,6.80
2022-09-04T02:24:43.879Z,6.77
2022-09-04T02:27:19.845Z,6.76
2022-09-04T02:29:56.048Z,6.75
2022-09-04T02:32:32.435Z,6.74
2022-09-04T02:35:11.008Z,6.73
2022-09-04T02:37:49.408Z,6.71
2022-09-04T02:40:25.738Z,6.70
2022-09-04T02:43:08.802Z,6.68
2022-09-04T02:45:45.751Z,6.69
2022-09-04T02:48:22.253Z,6.66
2022-09-04T02:51:03.383Z,6.66
2022-09-04T02:53:39.283Z,6.61
2022-09-04T02:56:22.957Z,6.58
2022-09-04T03:01:50.047Z,6.63
2022-09-04T03:04:28.930Z,6.49
2022-09-04T03:07:07.046Z,6.44
2022-09-04T03:12:33.245Z,6.52
2022-09-04T03:15:14.790Z,6.40
2022-09-04T03:17:53.406Z,6.40
2022-09-04T03:20:29.556Z,6.39
2022-09-04T03:23:05.950Z,6.39
2022-09-04T03:25:50.451Z,6.42
2022-09-04T03:28:29.289Z,6.45
2022-09-04T03:31:06.030Z,6.49
2022-09-04T03:33:42.004Z,6.53
2022-09-04T03:36:17.966Z,6.57
2022-09-04T03:38:55.174Z,6.58
2022-09-04T03:41:31.138Z,6.60
2022-09-04T03:44:12.847Z,6.55
2022-09-04T03:46:53.110Z,6.61
2022-09-04T03:49:31.728Z,6.64
2022-09-04T03:52:08.311Z,6.66
2022-09-04T03:54:49.245Z,6.71
2022-09-04T03:57:30.152Z,6.74
2022-09-04T04:00:11.285Z,6.78
2022-09-04T04:03:15.524Z,6.81
2022-09-04T04:05:57.414Z,6.84
2022-09-04T04:08:56.694Z,6.87
2022-09-04T04:12:01.633Z,6.92
2022-09-04T04:14:52.136Z,6.97
2022-09-04T04:17:42.662Z,7.00
2022-09-04T04:20:24.390Z,7.03
2022-09-04T04:23:33.360Z,7.06
2022-09-04T04:26:13.089Z,7.10
2022-09-04T04:28:59.544Z,7.15
2022-09-04T04:31:39.813Z,7.20
2022-09-04T04:34:18.390Z,7.26
2022-09-04T04:36:54.492Z,7.30
2022-09-04T04:39:31.577Z,7.37
2022-09-04T04:42:12.185Z,7.41
2022-09-04T04:45:23.587Z,7.46
2022-09-04T04:48:30.834Z,7.48
2022-09-04T04:51:12.451Z,7.53
2022-09-04T04:53:49.615Z,7.54
2022-09-04T04:56:26.499Z,7.58
2022-09-04T04:59:07.021Z,7.63
2022-09-04T05:01:49.560Z,7.69
2022-09-04T05:04:31.861Z,7.74
2022-09-04T05:09:56.612Z,7.99
2022-09-04T05:12:34.002Z,7.91
2022-09-04T05:15:11.468Z,7.99
2022-09-04T05:17:47.953Z,8.07
2022-09-04T05:20:48.003Z,8.14
2022-09-04T05:23:29.178Z,8.23
2022-09-04T05:26:06.499Z,8.32
2022-09-04T05:28:44.656Z,8.38
2022-09-04T05:31:24.125Z,8.46
2022-09-04T05:34:02.705Z,8.51
2022-09-04T05:36:41.464Z,8.53
2022-09-04T05:39:21.332Z,8.57
2022-09-04T05:42:06.639Z,8.66
2022-09-04T05:44:54.480Z,8.73
2022-09-04T05:47:34.416Z,8.82
2022-09-04T05:50:30.509Z,8.90
2022-09-04T05:53:22.504Z,9.00
2022-09-04T05:59:46.612Z,9.38
2022-09-04T06:02:34.434Z,9.13
2022-09-04T06:05:22.491Z,9.43
2022-09-04T06:08:01.060Z,9.48
2022-09-04T06:10:39.651Z,9.54
2022-09-04T06:13:42.868Z,9.60
2022-09-04T06:16:24.992Z,9.64
2022-09-04T06:19:08.186Z,9.69
2022-09-04T06:25:31.505Z,10.02
2022-09-04T06:28:28.399Z,10.11
2022-09-04T06:31:05.612Z,11.02
2022-09-04T06:34:00.292Z,12.39
2022-09-04T06:36:42.409Z,13.87
2022-09-04T06:39:26.480Z,15.22
2022-09-04T06:42:15.465Z,15.92
2022-09-04T06:44:56.225Z,16.99
2022-09-04T06:47:35.323Z,17.80
2022-09-04T06:50:22.227Z,18.96
2022-09-04T06:53:18.468Z,20.08
2022-09-04T06:55:58.274Z,20.29
2022-09-04T06:58:53.144Z,20.14
2022-09-04T07:01:40.809Z,20.31
2022-09-04T07:04:38.521Z,20.34
2022-09-04T07:07:24.802Z,20.79
2022-09-04T07:10:01.829Z,21.88
2022-09-04T07:16:24.822Z,19.46
2022-09-04T07:19:29.602Z,19.71
2022-09-04T07:22:18.341Z,22.07
2022-09-04T07:25:08.915Z,22.77
2022-09-04T07:27:58.266Z,23.37
2022-09-04T07:30:35.056Z,22.91
2022-09-04T07:33:12.537Z,23.15
2022-09-04T07:35:50.719Z,22.51
2022-09-04T07:38:29.201Z,20.16
2022-09-04T07:41:08.049Z,18.60
2022-09-04T07:43:49.257Z,19.65
2022-09-04T07:46:26.278Z,19.82
2022-09-04T07:51:59.207Z,21.40
2022-09-04T07:58:03.281Z,19.64
2022-09-04T08:00:41.676Z,17.66
2022-09-04T08:03:35.316Z,16.26
2022-09-04T08:06:14.455Z,17.96
2022-09-04T08:09:05.867Z,20.23
2022-09-04T08:12:28.129Z,19.53
2022-09-04T08:15:06.573Z,18.79
2022-09-04T08:18:13.206Z,18.79
2022-09-04T08:20:49.666Z,19.17
2022-09-04T08:23:32.175Z,18.02
2022-09-04T08:26:14.357Z,16.81
2022-09-04T08:28:57.478Z,15.93
2022-09-04T08:31:33.655Z,17.73
2022-09-04T08:34:53.225Z,18.99
2022-09-04T08:37:29.348Z,18.12
2022-09-04T08:40:16.776Z,17.29
2022-09-04T08:43:19.862Z,18.99
2022-09-04T08:49:42.306Z,22.87
2022-09-04T08:52:55.259Z,23.13
2022-09-04T08:56:06.582Z,23.66
2022-09-04T08:59:16.248Z,24.72
2022-09-04T09:02:18.203Z,23.30
2022-09-04T09:05:32.847Z,20.26
2022-09-04T09:08:17.689Z,18.48
2022-09-04T09:11:30.001Z,17.32
2022-09-04T09:14:31.992Z,16.98
2022-09-04T09:17:16.808Z,19.55
2022-09-04T09:22:54.459Z,22.45
2022-09-04T09:25:31.154Z,23.16
2022-09-04T09:28:32.045Z,24.21
2022-09-04T09:31:49.185Z,24.67
2022-09-04T09:35:03.047Z,24.36
2022-09-04T09:38:04.275Z,24.94
2022-09-04T09:41:16.768Z,25.87
2022-09-04T09:44:27.745Z,26.37
2022-09-04T09:47:27.396Z,26.21
2022-09-04T09:50:23.811Z,25.93
2022-09-04T09:53:52.012Z,23.49
2022-09-04T10:00:17.397Z,20.51
2022-09-04T10:03:31.079Z,21.29
2022-09-04T10:06:20.836Z,20.90
2022-09-04T10:09:34.993Z,21.92
2022-09-04T10:12:39.078Z,23.19
2022-09-04T10:15:39.299Z,23.48
2022-09-04T10:22:54.886Z,24.69
2022-09-04T10:29:43.122Z,26.68
2022-09-04T10:32:52.271Z,24.71
2022-09-04T10:35:36.730Z,24.79
2022-09-04T10:38:32.837Z,26.55
2022-09-04T10:44:46.426Z,24.46
2022-09-04T10:47:28.626Z,23.98
2022-09-04T10:50:27.283Z,24.85
2022-09-04T10:53:35.269Z,25.78
2022-09-04T10:56:16.444Z,27.39
2022-09-04T10:59:35.931Z,27.18
2022-09-04T11:02:32.375Z,24.81
2022-09-04T11:05:29.510Z,22.26
2022-09-04T11:08:36.665Z,20.51
2022-09-04T11:11:12.643Z,19.22
2022-09-04T11:17:28.555Z,17.90
2022-09-04T11:20:39.612Z,17.27
2022-09-04T11:23:56.207Z,16.95
2022-09-04T11:30:14.580Z,16.84
2022-09-04T11:36:44.188Z,17.03
2022-09-04T11:40:05.272Z,17.09
2022-09-04T11:42:50.435Z,17.12
2022-09-04T11:46:12.005Z,18.97
2022-09-04T11:49:20.309Z,22.08
2022-09-04T11:52:28.776Z,26.42
2022-09-04T11:55:23.762Z,27.80
2022-09-04T11:58:19.079Z,27.43
2022-09-04T12:00:59.511Z,28.29
2022-09-04T12:04:11.331Z,26.18
2022-09-04T12:06:53.840Z,24.76
2022-09-04T12:10:21.358Z,23.15
2022-09-04T12:13:15.155Z,22.01
2022-09-04T12:16:22.985Z,20.66
2022-09-04T12:19:40.438Z,19.35
2022-09-04T12:22:37.884Z,18.87
2022-09-04T12:25:41.349Z,18.83
2022-09-04T12:29:07.277Z,19.00
2022-09-04T12:32:07.420Z,21.30
2022-09-04T12:35:02.541Z,24.99
2022-09-04T12:38:21.543Z,23.04
2022-09-04T12:41:03.469Z,21.14
2022-09-04T12:43:46.471Z,21.33
2022-09-04T12:46:31.035Z,20.90
2022-09-04T12:49:11.145Z,20.62
2022-09-04T12:51:49.491Z,22.53
2022-09-04T12:54:33.455Z,24.09
2022-09-04T12:57:26.126Z,25.58
2022-09-04T13:00:07.687Z,27.90
2022-09-04T13:02:50.847Z,27.53
2022-09-04T13:08:36.402Z,26.24
2022-09-04T13:11:21.054Z,26.40
2022-09-04T13:13:57.625Z,27.96
2022-09-04T13:16:34.327Z,26.04
2022-09-04T13:19:12.673Z,22.87
2022-09-04T13:22:02.503Z,21.13
2022-09-04T13:24:44.449Z,20.66
2022-09-04T13:27:31.186Z,20.38
2022-09-04T13:30:09.507Z,19.39
2022-09-04T13:33:17.847Z,18.58
2022-09-04T13:36:00.227Z,18.15
2022-09-04T13:38:56.075Z,17.69
2022-09-04T13:41:46.678Z,17.48
2022-09-04T13:44:34.431Z,18.58
2022-09-04T13:47:11.656Z,20.50
2022-09-04T13:49:48.812Z,22.25
2022-09-04T13:52:26.767Z,23.29
2022-09-04T13:55:04.593Z,23.48
2022-09-04T13:57:42.815Z,23.88
2022-09-04T14:00:18.240Z,24.46
2022-09-04T14:02:56.873Z,23.81
2022-09-04T14:05:33.404Z,23.74
2022-09-04T14:08:12.514Z,24.02
2022-09-04T14:10:58.839Z,24.85
2022-09-04T14:13:41.842Z,24.36
2022-09-04T14:16:16.056Z,23.49
2022-09-04T14:19:01.663Z,22.39
2022-09-04T14:21:47.608Z,21.28
2022-09-04T14:24:24.439Z,19.83
2022-09-04T14:27:00.864Z,18.62
2022-09-04T14:29:38.505Z,17.87
2022-09-04T14:32:18.552Z,17.38
2022-09-04T14:34:57.259Z,17.17
2022-09-04T14:37:38.561Z,16.87
2022-09-04T14:40:15.225Z,16.75
2022-09-04T14:42:52.258Z,17.56
2022-09-04T14:45:36.219Z,19.78
2022-09-04T14:48:12.663Z,21.96
2022-09-04T14:50:50.708Z,23.46
2022-09-04T14:53:28.382Z,24.00
2022-09-04T14:56:26.256Z,23.81
2022-09-04T14:59:04.616Z,23.34
2022-09-04T15:01:40.849Z,21.51
2022-09-04T15:04:18.221Z,19.93
2022-09-04T15:07:10.708Z,18.86
2022-09-04T15:09:34.320Z,17.96
2022-09-04T15:12:24.752Z,17.15
2022-09-04T15:14:55.227Z,16.62
2022-09-04T15:17:31.437Z,16.46
2022-09-04T15:20:09.164Z,16.30
2022-09-04T15:22:42.995Z,16.24
2022-09-04T15:25:32.549Z,16.63
2022-09-04T15:28:01.974Z,16.94
2022-09-04T15:30:42.538Z,16.81
2022-09-04T15:33:15.392Z,16.52
2022-09-04T15:35:52.305Z,16.35
2022-09-04T15:38:27.914Z,17.13
2022-09-04T15:41:19.952Z,17.13
2022-09-04T15:43:42.746Z,17.61
2022-09-04T15:46:28.601Z,17.79
2022-09-04T15:49:07.933Z,17.75
2022-09-04T15:51:46.178Z,17.41
2022-09-04T15:54:49.790Z,16.99
2022-09-04T15:57:26.117Z,16.72
2022-09-04T16:00:02.221Z,16.61
2022-09-04T16:02:41.128Z,16.39
2022-09-04T16:05:23.561Z,16.06
2022-09-04T16:08:00.795Z,15.74
2022-09-04T16:10:48.228Z,15.45
2022-09-04T16:13:39.769Z,15.10
2022-09-04T16:16:17.806Z,14.75
2022-09-04T16:19:00.169Z,14.37
2022-09-04T16:21:42.476Z,14.04
2022-09-04T16:24:19.208Z,13.81
2022-09-04T16:26:55.258Z,13.64
2022-09-04T16:29:35.909Z,13.49
2022-09-04T16:32:12.365Z,13.36
2022-09-04T16:34:50.713Z,13.14
2022-09-04T16:37:28.894Z,12.97
2022-09-04T16:40:15.507Z,12.83
2022-09-04T16:42:52.685Z,12.75
2022-09-04T16:45:30.249Z,12.63
2022-09-04T16:48:33.981Z,12.56
2022-09-04T16:50:45.762Z,12.49
2022-09-04T16:53:23.491Z,12.37
2022-09-04T16:56:02.749Z,12.35
2022-09-04T16:58:41.984Z,12.30
2022-09-04T17:01:19.378Z,12.17
2022-09-04T17:04:23.463Z,11.97
2022-09-04T17:07:03.490Z,12.03
2022-09-04T17:12:52.863Z,12.00
2022-09-04T17:15:30.901Z,11.77
2022-09-04T17:18:09.646Z,11.63
2022-09-04T17:23:50.331Z,11.58
2022-09-04T17:28:55.911Z,11.60
2022-09-04T17:29:10.110Z,11.50
2022-09-04T17:29:15.036Z,11.57
2022-09-04T17:31:30.039Z,11.45
2022-09-04T17:39:12.004Z,11.40
2022-09-04T17:40:47.085Z,11.28
2022-09-04T17:40:53.466Z,11.34
2022-09-04T17:42:10.133Z,11.22
2022-09-04T17:44:47.099Z,11.17
2022-09-04T17:47:28.497Z,11.13
2022-09-04T17:50:03.046Z,11.12
2022-09-04T17:52:40.094Z,11.11
2022-09-04T17:55:15.378Z,11.10
2022-09-04T17:57:57.940Z,11.11
2022-09-04T18:00:35.603Z,11.08
2022-09-04T18:03:15.156Z,11.05
2022-09-04T18:05:53.678Z,11.01
2022-09-04T18:08:32.307Z,10.93
2022-09-04T18:11:12.294Z,10.89
2022-09-04T18:13:49.275Z,10.84
2022-09-04T18:16:47.762Z,10.79
2022-09-04T18:19:23.201Z,10.74
2022-09-04T18:22:24.949Z,10.66
2022-09-04T18:24:38.623Z,10.63
2022-09-04T18:30:57.198Z,10.71
2022-09-04T18:37:17.020Z,10.55
2022-09-04T18:37:22.651Z,10.57
2022-09-04T18:37:59.882Z,10.49
2022-09-04T18:40:53.527Z,10.42
2022-09-04T18:50:22.112Z,10.35
2022-09-04T18:50:46.627Z,10.22
2022-09-04T18:50:47.146Z,10.27
2022-09-04T18:51:21.235Z,10.15
2022-09-04T18:53:57.058Z,10.13
2022-09-04T18:56:33.106Z,10.08
2022-09-04T18:59:11.222Z,10.05
2022-09-04T19:01:48.147Z,10.02
2022-09-04T19:04:49.298Z,10.00
2022-09-04T19:07:32.649Z,9.95
2022-09-04T19:10:34.399Z,9.91
2022-09-04T19:13:11.292Z,9.89
2022-09-04T19:16:06.117Z,9.87
2022-09-04T19:18:49.162Z,9.85
2022-09-04T19:21:31.244Z,9.82
2022-09-04T19:24:14.360Z,9.78
2022-09-04T19:26:50.948Z,9.74
2022-09-04T19:29:27.563Z,9.70
2022-09-04T19:32:04.063Z,9.68
2022-09-04T19:38:07.841Z,9.73
2022-09-04T19:45:54.911Z,9.59
2022-09-04T19:46:00.253Z,9.58
2022-09-04T19:46:18.138Z,9.52
2022-09-04T19:47:59.289Z,9.46
2022-09-04T19:53:18.730Z,9.44
2022-09-04T19:53:38.668Z,9.40
2022-09-04T19:56:10.414Z,9.36
2022-09-04T19:58:45.791Z,9.32
2022-09-04T20:01:21.779Z,9.27
2022-09-04T20:03:58.742Z,9.23
2022-09-04T20:06:36.520Z,9.20
2022-09-04T20:09:12.731Z,9.17
2022-09-04T20:11:49.361Z,9.12
2022-09-04T20:14:26.798Z,9.09
2022-09-04T20:17:06.239Z,9.07
2022-09-04T20:19:43.365Z,9.08
2022-09-04T20:22:27.728Z,9.03
2022-09-04T20:25:08.073Z,9.03
2022-09-04T20:27:46.294Z,9.00
2022-09-04T20:30:25.086Z,8.96
2022-09-04T20:33:02.170Z,8.92
2022-09-04T20:35:40.082Z,8.89
2022-09-04T20:38:22.993Z,8.85
2022-09-04T20:40:57.744Z,8.85
2022-09-04T20:43:35.083Z,8.80
2022-09-04T20:51:01.855Z,8.76
2022-09-04T20:52:48.886Z,8.71
2022-09-04T20:53:05.037Z,8.67
2022-09-04T20:54:28.193Z,8.62
2022-09-04T20:58:40.359Z,8.57
2022-09-04T21:03:09.733Z,8.55
2022-09-04T21:03:23.007Z,8.53
2022-09-04T21:04:57.796Z,8.48
2022-09-04T21:07:34.142Z,8.42
2022-09-04T21:10:13.038Z,8.39
2022-09-04T21:12:52.557Z,8.36
2022-09-04T21:15:27.592Z,8.34
2022-09-04T21:18:17.646Z,8.29
2022-09-04T21:20:59.896Z,8.27
2022-09-04T21:24:01.973Z,8.22
2022-09-04T21:26:36.429Z,8.17
2022-09-04T21:29:21.850Z,8.13
2022-09-04T21:32:27.165Z,8.09
2022-09-04T21:35:08.912Z,8.03
2022-09-04T21:37:49.266Z,7.98
2022-09-04T21:40:51.435Z,7.92
2022-09-04T21:43:33.522Z,7.90
2022-09-04T21:46:17.018Z,7.81
2022-09-04T21:49:25.693Z,7.75
2022-09-04T21:51:59.310Z,7.70
2022-09-04T21:58:10.139Z,7.63
2022-09-04T22:02:30.335Z,7.61
2022-09-04T22:02:42.249Z,7.56
2022-09-04T22:03:44.184Z,7.51
2022-09-04T22:07:43.215Z,7.47
2022-09-04T22:13:33.190Z,7.44
2022-09-04T22:13:46.420Z,7.41
2022-09-04T22:14:32.275Z,7.38
2022-09-04T22:17:17.083Z,7.36
2022-09-04T22:20:33.095Z,7.30
2022-09-04T22:23:45.643Z,7.25
2022-09-04T22:26:55.097Z,7.13
2022-09-04T22:29:54.373Z,7.10
2022-09-04T22:33:05.390Z,7.02
2022-09-04T22:36:05.997Z,6.99
2022-09-04T22:39:12.294Z,6.97
2022-09-04T22:41:54.460Z,6.77
2022-09-04T22:44:33.277Z,6.92
2022-09-04T22:47:36.498Z,6.88
2022-09-04T22:50:49.454Z,6.88
2022-09-04T22:56:51.207Z,6.93
2022-09-04T22:59:52.817Z,6.79
2022-09-04T23:03:09.551Z,6.76
2022-09-04T23:06:54.413Z,6.75
2022-09-04T23:13:47.313Z,6.70
2022-09-04T23:13:58.887Z,6.67
2022-09-04T23:14:35.886Z,6.63
2022-09-04T23:17:29.490Z,6.59
2022-09-04T23:26:32.847Z,6.57
2022-09-04T23:26:50.365Z,6.54
2022-09-04T23:27:01.709Z,6.50
2022-09-04T23:32:44.531Z,6.54
2022-09-04T23:35:24.063Z,6.31
2022-09-04T23:41:36.895Z,6.56
2022-09-04T23:47:49.578Z,6.46
2022-09-04T23:50:33.829Z,6.30
2022-09-04T23:53:13.057Z,6.23
2022-09-04T23:55:59.336Z,6.21
2022-09-04T23:59:06.316Z,6.17
